sensor_id;sensor_type;location;lat;lon;timestamp;P1;durP1;ratioP1;P2;durP2;ratioP2
23290;SDS011;11814;44.686;10.842;2022-10-19T00:01:21;136.40;;;66.38;;
23290;SDS011;11814;44.686;10.842;2022-10-19T00:03:51;128.48;;;61.13;;
23290;SDS011;11814;44.686;10.842;2022-10-19T00:06:34;127.78;;;61.17;;
23290;SDS011;11814;44.686;10.842;2022-10-19T00:09:08;120.47;;;60.20;;
23290;SDS011;11814;44.686;10.842;2022-10-19T00:11:49;135.40;;;67.53;;
23290;SDS011;11814;44.686;10.842;2022-10-19T00:14:17;116.22;;;61.92;;
23290;SDS011;11814;44.686;10.842;2022-10-19T00:16:46;178.90;;;89.20;;
23290;SDS011;11814;44.686;10.842;2022-10-19T00:19:14;151.27;;;75.60;;
23290;SDS011;11814;44.686;10.842;2022-10-19T00:21:48;132.07;;;64.88;;
23290;SDS011;11814;44.686;10.842;2022-10-19T00:24:17;117.75;;;61.20;;
23290;SDS011;11814;44.686;10.842;2022-10-19T00:26:43;115.15;;;59.60;;
23290;SDS011;11814;44.686;10.842;2022-10-19T00:29:21;135.68;;;68.40;;
23290;SDS011;11814;44.686;10.842;2022-10-19T00:31:48;122.97;;;60.60;;
23290;SDS011;11814;44.686;10.842;2022-10-19T00:34:43;113.88;;;58.95;;
23290;SDS011;11814;44.686;10.842;2022-10-19T00:37:11;112.55;;;59.53;;
23290;SDS011;11814;44.686;10.842;2022-10-19T00:39:37;106.30;;;55.13;;
23290;SDS011;11814;44.686;10.842;2022-10-19T00:42:03;113.05;;;57.83;;
23290;SDS011;11814;44.686;10.842;2022-10-19T00:47:05;123.35;;;63.05;;
23290;SDS011;11814;44.686;10.842;2022-10-19T00:49:33;116.18;;;61.33;;
23290;SDS011;11814;44.686;10.842;2022-10-19T00:52:10;104.35;;;54.83;;
23290;SDS011;11814;44.686;10.842;2022-10-19T00:54:48;110.20;;;56.55;;
23290;SDS011;11814;44.686;10.842;2022-10-19T00:57:15;102.53;;;54.75;;
23290;SDS011;11814;44.686;10.842;2022-10-19T00:59:44;114.38;;;59.13;;
23290;SDS011;11814;44.686;10.842;2022-10-19T01:02:13;125.13;;;65.47;;
23290;SDS011;11814;44.686;10.842;2022-10-19T01:04:46;109.65;;;59.45;;
23290;SDS011;11814;44.686;10.842;2022-10-19T01:07:17;65.88;;;37.67;;
23290;SDS011;11814;44.686;10.842;2022-10-19T01:09:54;92.25;;;50.05;;
23290;SDS011;11814;44.686;10.842;2022-10-19T01:15:13;62.95;;;38.20;;
23290;SDS011;11814;44.686;10.842;2022-10-19T01:26:51;53.20;;;34.28;;
23290;SDS011;11814;44.686;10.842;2022-10-19T01:32:30;64.22;;;38.53;;
23290;SDS011;11814;44.686;10.842;2022-10-19T01:35:10;88.22;;;48.97;;
23290;SDS011;11814;44.686;10.842;2022-10-19T01:37:42;82.63;;;49.20;;
23290;SDS011;11814;44.686;10.842;2022-10-19T01:40:35;69.95;;;41.00;;
23290;SDS011;11814;44.686;10.842;2022-10-19T01:43:08;46.03;;;29.55;;
23290;SDS011;11814;44.686;10.842;2022-10-19T01:48:46;102.53;;;53.25;;
23290;SDS011;11814;44.686;10.842;2022-10-19T01:51:31;113.20;;;57.97;;
23290;SDS011;11814;44.686;10.842;2022-10-19T01:54:04;115.35;;;58.83;;
23290;SDS011;11814;44.686;10.842;2022-10-19T01:56:36;116.47;;;58.90;;
23290;SDS011;11814;44.686;10.842;2022-10-19T01:59:04;121.90;;;65.20;;
23290;SDS011;11814;44.686;10.842;2022-10-19T02:04:20;120.47;;;61.38;;
23290;SDS011;11814;44.686;10.842;2022-10-19T02:06:53;164.20;;;81.63;;
23290;SDS011;11814;44.686;10.842;2022-10-19T02:09:33;123.72;;;64.57;;
23290;SDS011;11814;44.686;10.842;2022-10-19T02:12:10;76.18;;;43.13;;
23290;SDS011;11814;44.686;10.842;2022-10-19T02:14:39;82.75;;;46.10;;
23290;SDS011;11814;44.686;10.842;2022-10-19T02:17:08;70.25;;;40.53;;
23290;SDS011;11814;44.686;10.842;2022-10-19T02:19:46;47.65;;;31.38;;
23290;SDS011;11814;44.686;10.842;2022-10-19T02:22:17;54.95;;;34.08;;
23290;SDS011;11814;44.686;10.842;2022-10-19T02:24:46;57.97;;;33.53;;
23290;SDS011;11814;44.686;10.842;2022-10-19T02:27:15;68.22;;;39.42;;
23290;SDS011;11814;44.686;10.842;2022-10-19T02:29:41;53.15;;;34.67;;
23290;SDS011;11814;44.686;10.842;2022-10-19T02:32:07;57.10;;;36.90;;
23290;SDS011;11814;44.686;10.842;2022-10-19T02:34:36;50.80;;;33.65;;
23290;SDS011;11814;44.686;10.842;2022-10-19T02:37:04;55.90;;;34.72;;
23290;SDS011;11814;44.686;10.842;2022-10-19T02:39:39;77.57;;;45.15;;
23290;SDS011;11814;44.686;10.842;2022-10-19T02:42:13;109.03;;;58.25;;
23290;SDS011;11814;44.686;10.842;2022-10-19T02:44:52;79.15;;;43.72;;
23290;SDS011;11814;44.686;10.842;2022-10-19T02:47:36;74.25;;;37.78;;
23290;SDS011;11814;44.686;10.842;2022-10-19T02:50:14;44.70;;;27.40;;
23290;SDS011;11814;44.686;10.842;2022-10-19T02:52:41;31.23;;;21.05;;
23290;SDS011;11814;44.686;10.842;2022-10-19T02:55:27;33.08;;;23.50;;
23290;SDS011;11814;44.686;10.842;2022-10-19T02:57:59;62.47;;;38.40;;
23290;SDS011;11814;44.686;10.842;2022-10-19T03:00:27;66.65;;;45.00;;
23290;SDS011;11814;44.686;10.842;2022-10-19T03:02:53;54.42;;;36.05;;
23290;SDS011;11814;44.686;10.842;2022-10-19T03:05:18;61.88;;;35.85;;
23290;SDS011;11814;44.686;10.842;2022-10-19T03:07:50;44.25;;;29.23;;
23290;SDS011;11814;44.686;10.842;2022-10-19T03:10:16;83.03;;;49.33;;
23290;SDS011;11814;44.686;10.842;2022-10-19T03:12:44;60.25;;;38.40;;
23290;SDS011;11814;44.686;10.842;2022-10-19T03:15:13;82.70;;;48.65;;
23290;SDS011;11814;44.686;10.842;2022-10-19T03:17:40;70.10;;;44.70;;
23290;SDS011;11814;44.686;10.842;2022-10-19T03:20:06;60.38;;;41.55;;
23290;SDS011;11814;44.686;10.842;2022-10-19T03:22:33;95.57;;;52.85;;
23290;SDS011;11814;44.686;10.842;2022-10-19T03:24:59;81.15;;;45.67;;
23290;SDS011;11814;44.686;10.842;2022-10-19T03:27:24;80.03;;;46.42;;
23290;SDS011;11814;44.686;10.842;2022-10-19T03:29:50;98.18;;;56.20;;
23290;SDS011;11814;44.686;10.842;2022-10-19T03:32:16;89.70;;;50.70;;
23290;SDS011;11814;44.686;10.842;2022-10-19T03:34:42;85.95;;;45.05;;
23290;SDS011;11814;44.686;10.842;2022-10-19T03:37:07;71.32;;;41.90;;
23290;SDS011;11814;44.686;10.842;2022-10-19T03:39:33;67.43;;;41.35;;
23290;SDS011;11814;44.686;10.842;2022-10-19T03:41:59;59.60;;;37.67;;
23290;SDS011;11814;44.686;10.842;2022-10-19T03:44:25;76.47;;;45.20;;
23290;SDS011;11814;44.686;10.842;2022-10-19T03:46:54;90.60;;;50.10;;
23290;SDS011;11814;44.686;10.842;2022-10-19T03:49:20;82.50;;;47.70;;
23290;SDS011;11814;44.686;10.842;2022-10-19T03:51:46;101.65;;;54.33;;
23290;SDS011;11814;44.686;10.842;2022-10-19T03:54:13;114.00;;;58.88;;
23290;SDS011;11814;44.686;10.842;2022-10-19T03:56:40;95.90;;;54.13;;
23290;SDS011;11814;44.686;10.842;2022-10-19T03:59:06;94.60;;;52.85;;
23290;SDS011;11814;44.686;10.842;2022-10-19T04:01:34;105.88;;;54.80;;
23290;SDS011;11814;44.686;10.842;2022-10-19T04:04:02;113.35;;;57.85;;
23290;SDS011;11814;44.686;10.842;2022-10-19T04:06:31;101.93;;;55.05;;
23290;SDS011;11814;44.686;10.842;2022-10-19T04:09:02;98.22;;;53.03;;
23290;SDS011;11814;44.686;10.842;2022-10-19T04:11:29;96.00;;;51.92;;
23290;SDS011;11814;44.686;10.842;2022-10-19T04:13:56;86.63;;;46.58;;
23290;SDS011;11814;44.686;10.842;2022-10-19T04:16:24;79.20;;;44.88;;
23290;SDS011;11814;44.686;10.842;2022-10-19T04:18:51;60.08;;;40.15;;
23290;SDS011;11814;44.686;10.842;2022-10-19T04:23:45;64.65;;;40.88;;
23290;SDS011;11814;44.686;10.842;2022-10-19T04:26:11;57.83;;;38.53;;
23290;SDS011;11814;44.686;10.842;2022-10-19T04:28:37;72.15;;;42.60;;
23290;SDS011;11814;44.686;10.842;2022-10-19T04:31:04;68.40;;;41.78;;
23290;SDS011;11814;44.686;10.842;2022-10-19T04:33:31;84.38;;;47.22;;
23290;SDS011;11814;44.686;10.842;2022-10-19T04:35:58;98.30;;;54.00;;
23290;SDS011;11814;44.686;10.842;2022-10-19T04:38:24;88.40;;;50.90;;
23290;SDS011;11814;44.686;10.842;2022-10-19T04:40:50;91.47;;;49.75;;
23290;SDS011;11814;44.686;10.842;2022-10-19T04:43:16;78.82;;;45.63;;
23290;SDS011;11814;44.686;10.842;2022-10-19T04:45:42;74.43;;;44.95;;
23290;SDS011;11814;44.686;10.842;2022-10-19T04:48:07;85.40;;;47.17;;
23290;SDS011;11814;44.686;10.842;2022-10-19T04:50:33;83.15;;;45.83;;
23290;SDS011;11814;44.686;10.842;2022-10-19T04:52:59;93.03;;;50.65;;
23290;SDS011;11814;44.686;10.842;2022-10-19T04:55:24;86.82;;;52.15;;
23290;SDS011;11814;44.686;10.842;2022-10-19T04:57:50;80.03;;;48.97;;
23290;SDS011;11814;44.686;10.842;2022-10-19T05:00:16;75.65;;;45.22;;
23290;SDS011;11814;44.686;10.842;2022-10-19T05:02:45;74.68;;;45.38;;
23290;SDS011;11814;44.686;10.842;2022-10-19T05:05:11;56.42;;;39.35;;
23290;SDS011;11814;44.686;10.842;2022-10-19T05:07:38;65.55;;;42.17;;
23290;SDS011;11814;44.686;10.842;2022-10-19T05:10:04;60.33;;;42.75;;
23290;SDS011;11814;44.686;10.842;2022-10-19T05:12:31;57.53;;;39.40;;
23290;SDS011;11814;44.686;10.842;2022-10-19T05:14:58;66.80;;;43.75;;
23290;SDS011;11814;44.686;10.842;2022-10-19T05:17:23;106.32;;;59.30;;
23290;SDS011;11814;44.686;10.842;2022-10-19T05:19:49;53.40;;;35.83;;
23290;SDS011;11814;44.686;10.842;2022-10-19T05:22:15;50.08;;;32.20;;
23290;SDS011;11814;44.686;10.842;2022-10-19T05:24:40;69.53;;;31.92;;
23290;SDS011;11814;44.686;10.842;2022-10-19T05:27:06;30.25;;;23.52;;
23290;SDS011;11814;44.686;10.842;2022-10-19T05:29:32;31.40;;;23.98;;
23290;SDS011;11814;44.686;10.842;2022-10-19T05:31:58;74.88;;;29.52;;
23290;SDS011;11814;44.686;10.842;2022-10-19T05:34:23;65.80;;;34.65;;
23290;SDS011;11814;44.686;10.842;2022-10-19T05:36:49;48.92;;;31.17;;
23290;SDS011;11814;44.686;10.842;2022-10-19T05:39:15;49.17;;;35.53;;
23290;SDS011;11814;44.686;10.842;2022-10-19T05:41:42;57.75;;;37.72;;
23290;SDS011;11814;44.686;10.842;2022-10-19T05:44:13;70.00;;;41.97;;
23290;SDS011;11814;44.686;10.842;2022-10-19T05:46:40;61.05;;;39.15;;
23290;SDS011;11814;44.686;10.842;2022-10-19T05:49:06;56.97;;;39.22;;
23290;SDS011;11814;44.686;10.842;2022-10-19T05:51:32;62.97;;;40.17;;
23290;SDS011;11814;44.686;10.842;2022-10-19T05:53:58;64.32;;;40.35;;
23290;SDS011;11814;44.686;10.842;2022-10-19T05:56:25;69.78;;;41.67;;
23290;SDS011;11814;44.686;10.842;2022-10-19T05:58:52;64.55;;;39.25;;
23290;SDS011;11814;44.686;10.842;2022-10-19T06:01:19;59.30;;;38.28;;
23290;SDS011;11814;44.686;10.842;2022-10-19T06:03:46;61.72;;;37.20;;
23290;SDS011;11814;44.686;10.842;2022-10-19T06:06:15;65.72;;;40.10;;
23290;SDS011;11814;44.686;10.842;2022-10-19T06:08:41;60.90;;;36.90;;
23290;SDS011;11814;44.686;10.842;2022-10-19T06:11:26;72.68;;;43.50;;
23290;SDS011;11814;44.686;10.842;2022-10-19T06:13:54;63.85;;;41.05;;
23290;SDS011;11814;44.686;10.842;2022-10-19T06:16:22;71.68;;;45.63;;
23290;SDS011;11814;44.686;10.842;2022-10-19T06:18:49;65.60;;;41.00;;
23290;SDS011;11814;44.686;10.842;2022-10-19T06:21:16;72.05;;;42.03;;
23290;SDS011;11814;44.686;10.842;2022-10-19T06:23:44;75.18;;;43.42;;
23290;SDS011;11814;44.686;10.842;2022-10-19T06:26:13;63.33;;;37.30;;
23290;SDS011;11814;44.686;10.842;2022-10-19T06:28:39;76.22;;;43.67;;
23290;SDS011;11814;44.686;10.842;2022-10-19T06:31:07;71.75;;;43.05;;
23290;SDS011;11814;44.686;10.842;2022-10-19T06:33:33;61.00;;;36.15;;
23290;SDS011;11814;44.686;10.842;2022-10-19T06:38:32;36.47;;;26.05;;
23290;SDS011;11814;44.686;10.842;2022-10-19T06:40:58;35.10;;;23.13;;
23290;SDS011;11814;44.686;10.842;2022-10-19T06:43:24;36.42;;;25.80;;
23290;SDS011;11814;44.686;10.842;2022-10-19T06:45:49;55.75;;;34.88;;
23290;SDS011;11814;44.686;10.842;2022-10-19T06:48:15;62.25;;;38.10;;
23290;SDS011;11814;44.686;10.842;2022-10-19T06:50:41;64.72;;;37.80;;
23290;SDS011;11814;44.686;10.842;2022-10-19T06:53:07;67.68;;;39.40;;
23290;SDS011;11814;44.686;10.842;2022-10-19T06:55:32;72.57;;;39.65;;
23290;SDS011;11814;44.686;10.842;2022-10-19T06:57:58;71.05;;;40.72;;
23290;SDS011;11814;44.686;10.842;2022-10-19T07:00:26;68.05;;;39.13;;
23290;SDS011;11814;44.686;10.842;2022-10-19T07:02:52;70.22;;;41.45;;
23290;SDS011;11814;44.686;10.842;2022-10-19T07:05:19;80.82;;;43.83;;
23290;SDS011;11814;44.686;10.842;2022-10-19T07:07:45;73.57;;;40.13;;
23290;SDS011;11814;44.686;10.842;2022-10-19T07:10:11;79.28;;;42.70;;
23290;SDS011;11814;44.686;10.842;2022-10-19T07:12:37;74.45;;;42.78;;
23290;SDS011;11814;44.686;10.842;2022-10-19T07:15:03;78.35;;;42.90;;
23290;SDS011;11814;44.686;10.842;2022-10-19T07:17:29;80.05;;;44.38;;
23290;SDS011;11814;44.686;10.842;2022-10-19T07:19:55;79.55;;;42.80;;
23290;SDS011;11814;44.686;10.842;2022-10-19T07:22:20;79.05;;;43.80;;
23290;SDS011;11814;44.686;10.842;2022-10-19T07:24:46;71.05;;;39.92;;
23290;SDS011;11814;44.686;10.842;2022-10-19T07:27:12;75.57;;;43.25;;
23290;SDS011;11814;44.686;10.842;2022-10-19T07:29:38;66.03;;;40.05;;
23290;SDS011;11814;44.686;10.842;2022-10-19T07:32:04;68.68;;;39.65;;
23290;SDS011;11814;44.686;10.842;2022-10-19T07:34:29;73.18;;;38.90;;
23290;SDS011;11814;44.686;10.842;2022-10-19T07:36:55;73.20;;;38.70;;
23290;SDS011;11814;44.686;10.842;2022-10-19T07:39:21;73.60;;;41.50;;
23290;SDS011;11814;44.686;10.842;2022-10-19T07:41:47;63.10;;;38.35;;
23290;SDS011;11814;44.686;10.842;2022-10-19T07:44:13;72.25;;;40.08;;
23290;SDS011;11814;44.686;10.842;2022-10-19T07:46:39;74.43;;;42.10;;
23290;SDS011;11814;44.686;10.842;2022-10-19T07:49:07;65.13;;;38.65;;
23290;SDS011;11814;44.686;10.842;2022-10-19T07:51:38;63.00;;;39.00;;
23290;SDS011;11814;44.686;10.842;2022-10-19T07:54:04;63.20;;;36.20;;
23290;SDS011;11814;44.686;10.842;2022-10-19T07:56:30;53.83;;;34.15;;
23290;SDS011;11814;44.686;10.842;2022-10-19T07:58:57;53.40;;;30.50;;
23290;SDS011;11814;44.686;10.842;2022-10-19T08:01:36;49.17;;;27.95;;
23290;SDS011;11814;44.686;10.842;2022-10-19T08:04:05;47.22;;;28.55;;
23290;SDS011;11814;44.686;10.842;2022-10-19T08:06:31;40.25;;;27.38;;
23290;SDS011;11814;44.686;10.842;2022-10-19T08:08:56;43.20;;;26.05;;
23290;SDS011;11814;44.686;10.842;2022-10-19T08:11:26;44.60;;;26.80;;
23290;SDS011;11814;44.686;10.842;2022-10-19T08:13:54;42.78;;;27.00;;
23290;SDS011;11814;44.686;10.842;2022-10-19T08:16:33;42.17;;;27.30;;
23290;SDS011;11814;44.686;10.842;2022-10-19T08:19:11;44.70;;;28.02;;
23290;SDS011;11814;44.686;10.842;2022-10-19T08:21:39;44.97;;;29.70;;
23290;SDS011;11814;44.686;10.842;2022-10-19T08:24:06;50.03;;;31.92;;
23290;SDS011;11814;44.686;10.842;2022-10-19T08:26:33;50.78;;;31.92;;
23290;SDS011;11814;44.686;10.842;2022-10-19T08:29:02;46.47;;;30.15;;
23290;SDS011;11814;44.686;10.842;2022-10-19T08:31:30;49.47;;;31.70;;
23290;SDS011;11814;44.686;10.842;2022-10-19T08:33:55;50.83;;;31.83;;
23290;SDS011;11814;44.686;10.842;2022-10-19T08:36:21;61.28;;;35.33;;
23290;SDS011;11814;44.686;10.842;2022-10-19T08:38:47;54.88;;;34.00;;
23290;SDS011;11814;44.686;10.842;2022-10-19T08:41:17;54.33;;;33.22;;
23290;SDS011;11814;44.686;10.842;2022-10-19T08:49:52;54.95;;;31.27;;
23290;SDS011;11814;44.686;10.842;2022-10-19T08:52:20;56.00;;;35.13;;
23290;SDS011;11814;44.686;10.842;2022-10-19T08:54:53;49.47;;;32.08;;
23290;SDS011;11814;44.686;10.842;2022-10-19T08:59:58;51.45;;;31.05;;
23290;SDS011;11814;44.686;10.842;2022-10-19T09:05:06;54.00;;;29.95;;
23290;SDS011;11814;44.686;10.842;2022-10-19T09:07:58;55.15;;;31.20;;
23290;SDS011;11814;44.686;10.842;2022-10-19T09:10:25;49.25;;;33.22;;
23290;SDS011;11814;44.686;10.842;2022-10-19T09:13:15;61.17;;;35.13;;
23290;SDS011;11814;44.686;10.842;2022-10-19T09:18:23;59.30;;;35.25;;
23290;SDS011;11814;44.686;10.842;2022-10-19T09:21:02;58.25;;;36.25;;
23290;SDS011;11814;44.686;10.842;2022-10-19T09:23:39;52.60;;;32.22;;
23290;SDS011;11814;44.686;10.842;2022-10-19T09:26:50;51.50;;;31.27;;
23290;SDS011;11814;44.686;10.842;2022-10-19T09:29:25;65.32;;;36.28;;
23290;SDS011;11814;44.686;10.842;2022-10-19T09:31:55;55.60;;;33.75;;
23290;SDS011;11814;44.686;10.842;2022-10-19T09:34:25;67.80;;;37.88;;
23290;SDS011;11814;44.686;10.842;2022-10-19T09:36:58;60.75;;;38.63;;
23290;SDS011;11814;44.686;10.842;2022-10-19T09:39:27;62.05;;;38.53;;
23290;SDS011;11814;44.686;10.842;2022-10-19T09:41:54;64.75;;;35.60;;
23290;SDS011;11814;44.686;10.842;2022-10-19T09:44:28;65.78;;;38.55;;
23290;SDS011;11814;44.686;10.842;2022-10-19T09:49:42;69.90;;;43.70;;
23290;SDS011;11814;44.686;10.842;2022-10-19T09:55:02;79.93;;;46.55;;
23290;SDS011;11814;44.686;10.842;2022-10-19T09:57:29;80.90;;;48.13;;
23290;SDS011;11814;44.686;10.842;2022-10-19T09:59:55;81.95;;;48.97;;
23290;SDS011;11814;44.686;10.842;2022-10-19T10:02:21;73.20;;;43.72;;
23290;SDS011;11814;44.686;10.842;2022-10-19T10:04:56;80.47;;;48.15;;
23290;SDS011;11814;44.686;10.842;2022-10-19T10:07:32;88.38;;;50.55;;
23290;SDS011;11814;44.686;10.842;2022-10-19T10:10:00;74.50;;;45.15;;
23290;SDS011;11814;44.686;10.842;2022-10-19T10:12:26;85.13;;;49.92;;
23290;SDS011;11814;44.686;10.842;2022-10-19T10:14:52;82.95;;;48.45;;
23290;SDS011;11814;44.686;10.842;2022-10-19T10:17:21;83.03;;;46.92;;
23290;SDS011;11814;44.686;10.842;2022-10-19T10:22:33;82.95;;;48.30;;
23290;SDS011;11814;44.686;10.842;2022-10-19T10:25:00;79.22;;;47.00;;
23290;SDS011;11814;44.686;10.842;2022-10-19T10:27:36;85.20;;;45.95;;
23290;SDS011;11814;44.686;10.842;2022-10-19T10:30:07;97.93;;;48.33;;
23290;SDS011;11814;44.686;10.842;2022-10-19T10:32:42;77.20;;;47.03;;
23290;SDS011;11814;44.686;10.842;2022-10-19T10:35:23;76.72;;;46.40;;
23290;SDS011;11814;44.686;10.842;2022-10-19T10:38:02;91.82;;;48.50;;
23290;SDS011;11814;44.686;10.842;2022-10-19T10:40:50;71.55;;;42.85;;
23290;SDS011;11814;44.686;10.842;2022-10-19T10:43:19;79.03;;;47.60;;
23290;SDS011;11814;44.686;10.842;2022-10-19T10:45:49;79.57;;;46.65;;
23290;SDS011;11814;44.686;10.842;2022-10-19T10:51:07;95.85;;;46.58;;
23290;SDS011;11814;44.686;10.842;2022-10-19T10:53:44;75.78;;;46.83;;
23290;SDS011;11814;44.686;10.842;2022-10-19T10:59:11;72.38;;;43.28;;
23290;SDS011;11814;44.686;10.842;2022-10-19T11:02:02;81.55;;;44.10;;
23290;SDS011;11814;44.686;10.842;2022-10-19T11:04:49;74.13;;;46.50;;
23290;SDS011;11814;44.686;10.842;2022-10-19T11:07:19;72.65;;;45.45;;
23290;SDS011;11814;44.686;10.842;2022-10-19T11:09:50;79.03;;;46.13;;
23290;SDS011;11814;44.686;10.842;2022-10-19T11:12:19;75.53;;;47.28;;
23290;SDS011;11814;44.686;10.842;2022-10-19T11:18:04;77.75;;;46.10;;
23290;SDS011;11814;44.686;10.842;2022-10-19T11:20:39;72.68;;;46.20;;
23290;SDS011;11814;44.686;10.842;2022-10-19T11:23:14;74.15;;;46.83;;
23290;SDS011;11814;44.686;10.842;2022-10-19T11:26:05;69.68;;;41.58;;
23290;SDS011;11814;44.686;10.842;2022-10-19T11:34:31;69.93;;;42.08;;
23290;SDS011;11814;44.686;10.842;2022-10-19T11:45:26;61.63;;;37.50;;
23290;SDS011;11814;44.686;10.842;2022-10-19T11:50:38;65.90;;;41.13;;
23290;SDS011;11814;44.686;10.842;2022-10-19T12:00:55;68.05;;;39.70;;
23290;SDS011;11814;44.686;10.842;2022-10-19T12:03:42;82.75;;;47.00;;
23290;SDS011;11814;44.686;10.842;2022-10-19T12:06:43;76.47;;;42.92;;
23290;SDS011;11814;44.686;10.842;2022-10-19T12:14:25;64.22;;;41.33;;
23290;SDS011;11814;44.686;10.842;2022-10-19T12:16:55;74.05;;;40.63;;
23290;SDS011;11814;44.686;10.842;2022-10-19T12:19:25;71.68;;;43.85;;
23290;SDS011;11814;44.686;10.842;2022-10-19T12:21:59;70.57;;;42.63;;
23290;SDS011;11814;44.686;10.842;2022-10-19T12:24:27;70.88;;;43.50;;
23290;SDS011;11814;44.686;10.842;2022-10-19T12:26:56;62.22;;;40.20;;
23290;SDS011;11814;44.686;10.842;2022-10-19T12:29:30;62.88;;;39.08;;
23290;SDS011;11814;44.686;10.842;2022-10-19T12:32:01;61.22;;;36.00;;
23290;SDS011;11814;44.686;10.842;2022-10-19T12:37:19;59.85;;;37.67;;
23290;SDS011;11814;44.686;10.842;2022-10-19T12:39:49;58.67;;;35.58;;
23290;SDS011;11814;44.686;10.842;2022-10-19T12:42:30;56.80;;;35.65;;
23290;SDS011;11814;44.686;10.842;2022-10-19T12:47:37;55.90;;;35.92;;
23290;SDS011;11814;44.686;10.842;2022-10-19T12:50:03;60.47;;;37.33;;
23290;SDS011;11814;44.686;10.842;2022-10-19T12:57:42;56.20;;;33.63;;
23290;SDS011;11814;44.686;10.842;2022-10-19T13:00:19;53.72;;;33.78;;
23290;SDS011;11814;44.686;10.842;2022-10-19T13:03:34;60.50;;;38.10;;
23290;SDS011;11814;44.686;10.842;2022-10-19T13:05:54;57.03;;;35.55;;
23290;SDS011;11814;44.686;10.842;2022-10-19T13:08:28;61.05;;;37.25;;
23290;SDS011;11814;44.686;10.842;2022-10-19T13:11:10;63.90;;;36.88;;
23290;SDS011;11814;44.686;10.842;2022-10-19T13:16:37;54.53;;;34.42;;
23290;SDS011;11814;44.686;10.842;2022-10-19T13:19:24;50.40;;;32.85;;
23290;SDS011;11814;44.686;10.842;2022-10-19T13:22:00;52.75;;;33.30;;
23290;SDS011;11814;44.686;10.842;2022-10-19T13:27:50;54.92;;;33.25;;
23290;SDS011;11814;44.686;10.842;2022-10-19T13:46:19;65.10;;;35.78;;
23290;SDS011;11814;44.686;10.842;2022-10-19T14:02:21;59.10;;;35.83;;
23290;SDS011;11814;44.686;10.842;2022-10-19T14:08:04;58.17;;;32.67;;
23290;SDS011;11814;44.686;10.842;2022-10-19T14:10:41;51.63;;;31.63;;
23290;SDS011;11814;44.686;10.842;2022-10-19T14:13:10;55.92;;;32.75;;
23290;SDS011;11814;44.686;10.842;2022-10-19T14:15:39;55.80;;;33.33;;
23290;SDS011;11814;44.686;10.842;2022-10-19T14:18:29;57.80;;;34.22;;
23290;SDS011;11814;44.686;10.842;2022-10-19T14:20:57;55.72;;;34.30;;
23290;SDS011;11814;44.686;10.842;2022-10-19T14:23:25;55.80;;;32.47;;
23290;SDS011;11814;44.686;10.842;2022-10-19T14:25:57;52.72;;;31.25;;
23290;SDS011;11814;44.686;10.842;2022-10-19T14:28:42;57.53;;;34.20;;
23290;SDS011;11814;44.686;10.842;2022-10-19T14:31:10;58.08;;;34.97;;
23290;SDS011;11814;44.686;10.842;2022-10-19T14:33:44;54.28;;;31.70;;
23290;SDS011;11814;44.686;10.842;2022-10-19T14:36:32;49.80;;;31.02;;
23290;SDS011;11814;44.686;10.842;2022-10-19T14:39:01;58.72;;;33.78;;
23290;SDS011;11814;44.686;10.842;2022-10-19T14:43:54;48.20;;;31.13;;
23290;SDS011;11814;44.686;10.842;2022-10-19T14:46:23;50.45;;;31.10;;
23290;SDS011;11814;44.686;10.842;2022-10-19T14:48:57;51.90;;;31.38;;
23290;SDS011;11814;44.686;10.842;2022-10-19T14:51:31;56.60;;;34.70;;
23290;SDS011;11814;44.686;10.842;2022-10-19T14:57:06;51.60;;;33.20;;
23290;SDS011;11814;44.686;10.842;2022-10-19T15:04:48;51.75;;;32.53;;
23290;SDS011;11814;44.686;10.842;2022-10-19T15:07:26;54.50;;;33.13;;
23290;SDS011;11814;44.686;10.842;2022-10-19T15:10:26;53.45;;;31.42;;
23290;SDS011;11814;44.686;10.842;2022-10-19T15:12:56;56.50;;;33.15;;
23290;SDS011;11814;44.686;10.842;2022-10-19T15:15:33;57.28;;;32.72;;
23290;SDS011;11814;44.686;10.842;2022-10-19T15:20:35;49.17;;;31.00;;
23290;SDS011;11814;44.686;10.842;2022-10-19T15:26:14;52.40;;;30.50;;
23290;SDS011;11814;44.686;10.842;2022-10-19T15:28:40;47.53;;;30.65;;
23290;SDS011;11814;44.686;10.842;2022-10-19T15:31:19;48.40;;;30.08;;
23290;SDS011;11814;44.686;10.842;2022-10-19T15:33:51;48.97;;;28.63;;
23290;SDS011;11814;44.686;10.842;2022-10-19T15:36:18;44.75;;;28.23;;
23290;SDS011;11814;44.686;10.842;2022-10-19T15:38:58;51.92;;;30.20;;
23290;SDS011;11814;44.686;10.842;2022-10-19T15:41:33;45.33;;;26.83;;
23290;SDS011;11814;44.686;10.842;2022-10-19T15:44:04;48.75;;;29.48;;
23290;SDS011;11814;44.686;10.842;2022-10-19T15:46:33;47.03;;;28.77;;
23290;SDS011;11814;44.686;10.842;2022-10-19T15:52:17;46.88;;;29.02;;
23290;SDS011;11814;44.686;10.842;2022-10-19T15:54:48;39.97;;;26.35;;
23290;SDS011;11814;44.686;10.842;2022-10-19T15:59:58;47.10;;;29.52;;
23290;SDS011;11814;44.686;10.842;2022-10-19T16:02:44;45.15;;;28.27;;
23290;SDS011;11814;44.686;10.842;2022-10-19T16:05:10;47.28;;;29.92;;
23290;SDS011;11814;44.686;10.842;2022-10-19T16:07:37;46.38;;;27.65;;
23290;SDS011;11814;44.686;10.842;2022-10-19T16:10:04;43.63;;;26.27;;
23290;SDS011;11814;44.686;10.842;2022-10-19T16:12:30;42.50;;;27.13;;
23290;SDS011;11814;44.686;10.842;2022-10-19T16:14:56;45.33;;;27.08;;
23290;SDS011;11814;44.686;10.842;2022-10-19T16:17:22;41.47;;;26.25;;
23290;SDS011;11814;44.686;10.842;2022-10-19T16:19:48;46.40;;;26.75;;
23290;SDS011;11814;44.686;10.842;2022-10-19T16:22:14;50.13;;;27.88;;
23290;SDS011;11814;44.686;10.842;2022-10-19T16:24:41;51.35;;;28.17;;
23290;SDS011;11814;44.686;10.842;2022-10-19T16:27:07;44.17;;;26.98;;
23290;SDS011;11814;44.686;10.842;2022-10-19T16:29:33;46.92;;;29.52;;
23290;SDS011;11814;44.686;10.842;2022-10-19T16:31:59;54.13;;;28.75;;
23290;SDS011;11814;44.686;10.842;2022-10-19T16:34:25;47.15;;;28.48;;
23290;SDS011;11814;44.686;10.842;2022-10-19T16:36:51;48.17;;;28.83;;
23290;SDS011;11814;44.686;10.842;2022-10-19T16:39:17;46.13;;;26.90;;
23290;SDS011;11814;44.686;10.842;2022-10-19T16:41:43;45.42;;;27.92;;
23290;SDS011;11814;44.686;10.842;2022-10-19T16:44:09;49.75;;;29.25;;
23290;SDS011;11814;44.686;10.842;2022-10-19T16:46:36;48.55;;;29.23;;
23290;SDS011;11814;44.686;10.842;2022-10-19T16:49:02;50.47;;;30.15;;
23290;SDS011;11814;44.686;10.842;2022-10-19T16:51:35;50.20;;;28.67;;
23290;SDS011;11814;44.686;10.842;2022-10-19T16:54:03;47.13;;;30.35;;
23290;SDS011;11814;44.686;10.842;2022-10-19T16:56:31;50.15;;;30.98;;
23290;SDS011;11814;44.686;10.842;2022-10-19T16:58:59;48.42;;;29.23;;
23290;SDS011;11814;44.686;10.842;2022-10-19T17:01:29;51.97;;;30.52;;
23290;SDS011;11814;44.686;10.842;2022-10-19T17:03:56;51.00;;;29.67;;
23290;SDS011;11814;44.686;10.842;2022-10-19T17:06:23;55.72;;;32.08;;
23290;SDS011;11814;44.686;10.842;2022-10-19T17:08:49;49.45;;;28.65;;